createdAt,value
2023-06-20T00:02:29.837Z,100162.31
2023-06-20T00:05:32.777Z,100160.84
2023-06-20T00:08:35.503Z,100167.22
2023-06-20T00:11:38.251Z,100159.81
2023-06-20T00:14:41.011Z,100161.16
2023-06-20T00:17:43.831Z,100161.41
2023-06-20T00:20:47.661Z,100154.53
2023-06-20T00:23:50.456Z,100159.22
2023-06-20T00:26:53.225Z,100147.63
2023-06-20T00:29:55.998Z,100157.38
2023-06-20T00:33:01.844Z,100154.97
2023-06-20T00:36:05.137Z,100138.84
2023-06-20T00:39:07.872Z,100150.03
2023-06-20T00:42:21.473Z,100151.34
2023-06-20T00:45:34.869Z,100153.38
2023-06-20T00:48:37.926Z,100150.50
2023-06-20T00:51:41.074Z,100148.09
2023-06-20T00:54:48.243Z,100143.41
2023-06-20T00:57:51.390Z,100144.34
2023-06-20T01:00:54.150Z,100140.00
2023-06-20T01:03:57.629Z,100144.00
2023-06-20T01:07:09.384Z,100141.84
2023-06-20T01:10:34.824Z,100143.56
2023-06-20T01:13:44.679Z,100139.88
2023-06-20T01:16:52.716Z,100141.25
2023-06-20T01:20:25.102Z,100149.03
2023-06-20T01:23:33.835Z,100145.81
2023-06-20T01:27:11.413Z,100150.84
2023-06-20T01:30:22.053Z,100148.78
2023-06-20T01:33:30.332Z,100151.22
2023-06-20T01:36:48.408Z,100144.69
2023-06-20T01:39:53.187Z,100145.50
2023-06-20T01:42:59.752Z,100130.03
2023-06-20T01:46:05.981Z,100129.34
2023-06-20T01:49:12.599Z,100134.25
2023-06-20T01:52:17.807Z,100130.38
2023-06-20T01:55:22.424Z,100127.38
2023-06-20T01:58:26.779Z,100125.78
2023-06-20T02:01:31.586Z,100124.88
2023-06-20T02:04:38.580Z,100124.78
2023-06-20T02:07:44.602Z,100118.91
2023-06-20T02:10:47.881Z,100122.03
2023-06-20T02:13:53.069Z,100120.41
2023-06-20T02:17:01.993Z,100121.44
2023-06-20T02:20:06.299Z,100130.47
2023-06-20T02:23:11.354Z,100124.88
2023-06-20T02:26:18.652Z,100119.16
2023-06-20T02:29:23.626Z,100120.50
2023-06-20T02:32:28.017Z,100122.91
2023-06-20T02:35:33.674Z,100126.09
2023-06-20T02:38:36.537Z,100120.03
2023-06-20T02:41:43.120Z,100124.94
2023-06-20T02:44:46.032Z,100122.91
2023-06-20T02:48:03.911Z,100118.41
2023-06-20T02:51:16.820Z,100121.53
2023-06-20T02:54:28.007Z,100124.59
2023-06-20T02:57:32.695Z,100121.28
2023-06-20T03:00:37.583Z,100121.94
2023-06-20T03:03:46.639Z,100121.69
2023-06-20T03:06:52.476Z,100123.53
2023-06-20T03:09:57.144Z,100126.41
2023-06-20T03:13:00.700Z,100136.84
2023-06-20T03:16:06.029Z,100136.13
2023-06-20T03:19:11.869Z,100139.59
2023-06-20T03:22:17.233Z,100151.16
2023-06-20T03:25:21.046Z,100159.59
2023-06-20T03:28:23.826Z,100164.97
2023-06-20T03:31:29.458Z,100162.25
2023-06-20T03:34:34.490Z,100171.41
2023-06-20T03:37:39.276Z,100174.47
2023-06-20T03:40:42.073Z,100166.50
2023-06-20T03:43:44.786Z,100170.91
2023-06-20T03:46:48.555Z,100176.81
2023-06-20T03:49:51.515Z,100188.81
2023-06-20T03:52:55.094Z,100188.00
2023-06-20T03:55:57.975Z,100186.69
2023-06-20T03:59:00.862Z,100190.94
2023-06-20T04:02:05.295Z,100196.09
2023-06-20T04:05:09.737Z,100193.09
2023-06-20T04:08:14.541Z,100195.97
2023-06-20T04:11:17.484Z,100193.56
2023-06-20T04:14:21.585Z,100190.38
2023-06-20T04:17:24.387Z,100187.84
2023-06-20T04:20:27.321Z,100195.97
2023-06-20T04:23:30.155Z,100191.28
2023-06-20T04:26:32.954Z,100192.41
2023-06-20T04:29:35.819Z,100206.81
2023-06-20T04:32:39.022Z,100198.78
2023-06-20T04:35:42.734Z,100203.66
2023-06-20T04:38:48.492Z,100198.59
2023-06-20T04:41:51.611Z,100211.06
2023-06-20T04:44:54.755Z,100205.75
2023-06-20T04:47:58.672Z,100212.59
2023-06-20T04:51:01.499Z,100214.31
2023-06-20T04:54:04.348Z,100217.53
2023-06-20T04:57:07.128Z,100218.25
2023-06-20T05:00:15.453Z,100213.47
2023-06-20T05:03:21.167Z,100217.47
2023-06-20T05:06:23.992Z,100218.44
2023-06-20T05:09:26.683Z,100219.09
2023-06-20T05:12:29.481Z,100219.09
2023-06-20T05:15:32.272Z,100230.22
2023-06-20T05:18:35.999Z,100224.59
2023-06-20T05:21:38.759Z,100225.34
2023-06-20T05:24:41.574Z,100226.13
2023-06-20T05:27:44.440Z,100224.25
2023-06-20T05:30:47.164Z,100233.38
2023-06-20T05:33:49.984Z,100234.47
2023-06-20T05:36:52.751Z,100225.88
2023-06-20T05:39:56.582Z,100238.34
2023-06-20T05:43:00.364Z,100242.88
2023-06-20T05:46:03.121Z,100245.19
2023-06-20T05:49:11.143Z,100239.78
2023-06-20T05:52:14.210Z,100237.69
2023-06-20T05:55:16.892Z,100248.69
2023-06-20T05:58:20.536Z,100242.41
2023-06-20T06:01:23.292Z,100246.16
2023-06-20T06:04:29.337Z,100244.38
2023-06-20T06:07:32.257Z,100247.09
2023-06-20T06:10:36.047Z,100254.28
2023-06-20T06:13:40.093Z,100246.72
2023-06-20T06:16:43.348Z,100250.66
2023-06-20T06:19:46.085Z,100250.19
2023-06-20T06:22:48.988Z,100253.44
2023-06-20T06:25:53.442Z,100256.19
2023-06-20T06:28:56.257Z,100247.78
2023-06-20T06:32:00.706Z,100249.38
2023-06-20T06:35:05.396Z,100249.47
2023-06-20T06:38:08.666Z,100247.91
2023-06-20T06:41:11.546Z,100247.38
2023-06-20T06:44:14.474Z,100253.25
2023-06-20T06:47:17.254Z,100250.34
2023-06-20T06:50:20.073Z,100243.69
2023-06-20T06:53:22.878Z,100245.03
2023-06-20T06:56:25.648Z,100238.63
2023-06-20T06:59:28.429Z,100243.69
2023-06-20T07:02:31.216Z,100244.16
2023-06-20T07:05:34.037Z,100248.66
2023-06-20T07:08:36.717Z,100248.66
2023-06-20T07:11:39.482Z,100248.06
2023-06-20T07:14:42.253Z,100250.97
2023-06-20T07:17:45.026Z,100259.00
2023-06-20T07:20:47.811Z,100254.94
2023-06-20T07:23:50.582Z,100261.72
2023-06-20T07:26:53.382Z,100268.47
2023-06-20T07:29:56.785Z,100264.72
2023-06-20T07:32:59.651Z,100271.31
2023-06-20T07:36:02.419Z,100279.63
2023-06-20T07:39:05.211Z,100278.97
2023-06-20T07:42:08.333Z,100291.19
2023-06-20T07:45:11.231Z,100291.34
2023-06-20T07:48:13.954Z,100293.03
2023-06-20T07:51:17.262Z,100284.31
2023-06-20T07:54:19.995Z,100282.13
2023-06-20T07:57:22.734Z,100280.41
2023-06-20T08:00:26.550Z,100287.31
2023-06-20T08:03:29.459Z,100286.59
2023-06-20T08:06:32.480Z,100292.34
2023-06-20T08:09:35.308Z,100280.44
2023-06-20T08:12:38.936Z,100279.72
2023-06-20T08:15:41.663Z,100295.25
2023-06-20T08:18:44.561Z,100292.06
2023-06-20T08:21:47.261Z,100298.25
2023-06-20T08:24:49.972Z,100302.28
2023-06-20T08:28:02.087Z,100303.16
2023-06-20T08:31:13.268Z,100302.31
2023-06-20T08:34:16.054Z,100309.28
2023-06-20T08:37:19.041Z,100306.97
2023-06-20T08:40:21.863Z,100304.66
2023-06-20T08:43:24.645Z,100300.75
2023-06-20T08:46:27.587Z,100295.69
2023-06-20T08:49:30.428Z,100292.31
2023-06-20T08:52:41.001Z,100289.44
2023-06-20T08:55:44.597Z,100288.78
2023-06-20T08:58:47.786Z,100288.00
2023-06-20T09:01:50.974Z,100279.22
2023-06-20T09:05:04.281Z,100285.03
2023-06-20T09:08:07.995Z,100283.94
2023-06-20T09:11:12.640Z,100281.34
2023-06-20T09:14:17.133Z,100283.44
2023-06-20T09:17:23.487Z,100283.47
2023-06-20T09:20:28.163Z,100278.56
2023-06-20T09:23:32.936Z,100283.94
2023-06-20T09:26:36.725Z,100287.91
2023-06-20T09:29:53.104Z,100280.41
2023-06-20T09:32:56.003Z,100283.28
2023-06-20T09:36:18.333Z,100287.81
2023-06-20T09:39:24.468Z,100283.03
2023-06-20T09:42:27.251Z,100280.66
2023-06-20T09:45:30.098Z,100274.91
2023-06-20T09:48:35.478Z,100277.59
2023-06-20T09:51:54.010Z,100277.13
2023-06-20T09:54:59.670Z,100285.91
2023-06-20T09:58:05.295Z,100278.47
2023-06-20T10:01:14.558Z,100280.88
2023-06-20T10:04:19.091Z,100282.53
2023-06-20T10:07:23.072Z,100275.59
2023-06-20T10:10:26.356Z,100284.22
2023-06-20T10:13:30.840Z,100278.97
2023-06-20T10:16:33.639Z,100279.56
2023-06-20T10:19:49.033Z,100285.44
2023-06-20T10:22:51.793Z,100275.56
2023-06-20T10:25:59.319Z,100273.06
2023-06-20T10:29:03.253Z,100270.44
2023-06-20T10:32:07.651Z,100275.75
2023-06-20T10:35:16.850Z,100275.00
2023-06-20T10:38:19.858Z,100274.66
2023-06-20T10:41:25.087Z,100266.81
2023-06-20T10:44:30.724Z,100280.59
2023-06-20T10:47:35.089Z,100279.91
2023-06-20T10:50:40.257Z,100283.28
2023-06-20T10:53:43.292Z,100275.13
2023-06-20T10:56:47.904Z,100281.25
2023-06-20T10:59:51.790Z,100280.28
2023-06-20T11:02:56.300Z,100266.16
2023-06-20T11:05:59.620Z,100269.00
2023-06-20T11:09:02.649Z,100265.28
2023-06-20T11:12:11.395Z,100260.09
2023-06-20T11:15:29.691Z,100257.22
2023-06-20T11:18:32.580Z,100249.34
2023-06-20T11:21:36.623Z,100247.56
2023-06-20T11:24:39.373Z,100249.16
2023-06-20T11:27:42.134Z,100246.25
2023-06-20T11:30:52.248Z,100242.88
2023-06-20T11:34:11.199Z,100233.19
2023-06-20T11:37:14.809Z,100246.25
2023-06-20T11:40:17.703Z,100232.34
2023-06-20T11:43:21.476Z,100243.84
2023-06-20T11:46:24.285Z,100235.72
2023-06-20T11:49:31.758Z,100231.88
2023-06-20T11:52:36.047Z,100220.09
2023-06-20T11:55:52.344Z,100219.78
2023-06-20T11:58:55.253Z,100231.34
2023-06-20T12:01:59.033Z,100227.63
2023-06-20T12:05:04.442Z,100236.06
2023-06-20T12:08:08.738Z,100219.25
2023-06-20T12:11:14.492Z,100217.63
2023-06-20T12:14:18.037Z,100212.88
2023-06-20T12:17:20.856Z,100214.41
2023-06-20T12:20:34.603Z,100214.59
2023-06-20T12:23:41.453Z,100210.16
2023-06-20T12:26:48.441Z,100210.03
2023-06-20T12:29:51.326Z,100203.84
2023-06-20T12:32:56.856Z,100199.09
2023-06-20T12:36:00.102Z,100204.66
2023-06-20T12:39:04.809Z,100197.38
2023-06-20T12:42:07.915Z,100197.69
2023-06-20T12:45:12.158Z,100195.81
2023-06-20T12:48:15.271Z,100200.88
2023-06-20T12:51:18.542Z,100205.28
2023-06-20T12:54:21.294Z,100198.19
2023-06-20T12:57:27.001Z,100194.53
2023-06-20T13:00:30.560Z,100192.31
2023-06-20T13:03:33.544Z,100193.56
2023-06-20T13:06:36.739Z,100196.91
2023-06-20T13:09:40.214Z,100186.16
2023-06-20T13:12:42.973Z,100187.66
2023-06-20T13:15:45.814Z,100183.91
2023-06-20T13:18:48.645Z,100186.38
2023-06-20T13:21:51.549Z,100187.06
2023-06-20T13:24:54.317Z,100179.38
2023-06-20T13:27:57.206Z,100172.56
2023-06-20T13:30:59.912Z,100179.19
2023-06-20T13:34:03.089Z,100175.97
2023-06-20T13:37:06.241Z,100174.81
2023-06-20T13:40:10.975Z,100175.38
2023-06-20T13:43:13.732Z,100176.56
2023-06-20T13:46:17.019Z,100169.38
2023-06-20T13:49:20.173Z,100161.63
2023-06-20T13:52:24.282Z,100168.44
2023-06-20T13:55:27.185Z,100174.31
2023-06-20T13:58:29.919Z,100164.41
2023-06-20T14:01:36.024Z,100170.81
2023-06-20T14:04:40.084Z,100161.97
2023-06-20T14:07:43.753Z,100159.47
2023-06-20T14:10:46.530Z,100164.31
2023-06-20T14:13:49.315Z,100153.69
2023-06-20T14:16:52.130Z,100151.28
2023-06-20T14:19:55.003Z,100142.59
2023-06-20T14:22:57.849Z,100149.31
2023-06-20T14:26:00.637Z,100142.31
2023-06-20T14:29:04.005Z,100151.63
2023-06-20T14:32:08.069Z,100135.56
2023-06-20T14:35:10.866Z,100137.84
2023-06-20T14:38:14.654Z,100136.88
2023-06-20T14:41:17.694Z,100133.91
2023-06-20T14:44:20.572Z,100141.81
2023-06-20T14:47:23.885Z,100143.03
2023-06-20T14:50:39.119Z,100139.94
2023-06-20T14:53:49.388Z,100142.97
2023-06-20T14:56:52.228Z,100136.94
2023-06-20T14:59:55.006Z,100134.56
2023-06-20T15:02:57.861Z,100127.75
2023-06-20T15:06:00.814Z,100127.44
2023-06-20T15:09:03.906Z,100129.72
2023-06-20T15:12:07.337Z,100124.44
2023-06-20T15:15:10.374Z,100125.72
2023-06-20T15:18:13.411Z,100124.78
2023-06-20T15:21:16.180Z,100127.34
2023-06-20T15:24:19.038Z,100127.34
2023-06-20T15:27:21.816Z,100131.31
2023-06-20T15:30:27.281Z,100129.84
2023-06-20T15:33:30.482Z,100109.59
2023-06-20T15:36:33.688Z,100120.31
2023-06-20T15:39:36.427Z,100125.78
2023-06-20T15:42:39.586Z,100116.53
2023-06-20T15:45:42.579Z,100124.78
2023-06-20T15:48:57.174Z,100120.03
2023-06-20T15:52:00.492Z,100126.53
2023-06-20T15:55:03.526Z,100128.41
2023-06-20T15:58:06.336Z,100137.09
2023-06-20T16:01:09.593Z,100133.03
2023-06-20T16:04:12.500Z,100129.09
2023-06-20T16:07:16.383Z,100127.44
2023-06-20T16:10:19.222Z,100119.38
2023-06-20T16:13:21.939Z,100130.75
2023-06-20T16:16:25.630Z,100120.84
2023-06-20T16:19:28.523Z,100119.69
2023-06-20T16:22:31.326Z,100119.66
2023-06-20T16:25:34.580Z,100113.09
2023-06-20T16:28:37.817Z,100112.97
2023-06-20T16:31:42.667Z,100110.88
2023-06-20T16:34:45.604Z,100114.88
2023-06-20T16:37:49.133Z,100113.47
2023-06-20T16:40:52.246Z,100111.88
2023-06-20T16:43:55.064Z,100107.72
2023-06-20T16:46:58.883Z,100105.00
2023-06-20T16:50:01.799Z,100107.22
2023-06-20T16:53:05.373Z,100109.66
2023-06-20T16:56:08.272Z,100105.78
2023-06-20T16:59:11.096Z,100101.56
2023-06-20T17:02:13.937Z,100098.94
2023-06-20T17:05:16.864Z,100097.91
2023-06-20T17:08:19.590Z,100093.75
2023-06-20T17:11:23.353Z,100090.78
2023-06-20T17:14:28.054Z,100087.59
2023-06-20T17:17:30.967Z,100094.25
2023-06-20T17:20:34.032Z,100097.34
2023-06-20T17:23:39.810Z,100097.06
2023-06-20T17:26:42.811Z,100093.47
2023-06-20T17:29:45.524Z,100095.88
2023-06-20T17:32:48.591Z,100102.81
2023-06-20T17:35:51.357Z,100097.13
2023-06-20T17:38:54.347Z,100102.53
2023-06-20T17:41:58.132Z,100107.44
2023-06-20T17:45:01.840Z,100105.38
2023-06-20T17:48:05.036Z,100105.94
2023-06-20T17:51:07.787Z,100106.56
2023-06-20T17:54:10.536Z,100107.16
2023-06-20T17:57:13.563Z,100095.28
2023-06-20T18:00:16.653Z,100094.97
2023-06-20T18:03:19.705Z,100096.31
2023-06-20T18:06:24.508Z,100099.00
2023-06-20T18:09:27.394Z,100103.00
2023-06-20T18:12:30.198Z,100096.34
2023-06-20T18:15:32.924Z,100104.00
2023-06-20T18:18:38.699Z,100103.78
2023-06-20T18:21:41.706Z,100115.00
2023-06-20T18:24:44.494Z,100110.59
2023-06-20T18:27:47.372Z,100111.75
2023-06-20T18:30:50.083Z,100113.25
2023-06-20T18:33:52.769Z,100108.47
2023-06-20T18:36:55.560Z,100114.53
2023-06-20T18:39:58.281Z,100113.38
2023-06-20T18:43:01.191Z,100119.66
2023-06-20T18:46:04.497Z,100123.78
2023-06-20T18:49:07.565Z,100127.41
2023-06-20T18:52:10.693Z,100126.19
2023-06-20T18:55:13.685Z,100123.38
2023-06-20T18:58:16.834Z,100130.38
2023-06-20T19:01:19.862Z,100134.97
2023-06-20T19:04:23.153Z,100136.81
2023-06-20T19:07:26.482Z,100142.44
2023-06-20T19:10:29.389Z,100138.47
2023-06-20T19:13:32.545Z,100144.09
2023-06-20T19:16:35.463Z,100145.78
2023-06-20T19:19:38.173Z,100146.84
2023-06-20T19:22:41.124Z,100145.53
2023-06-20T19:25:43.952Z,100143.44
2023-06-20T19:28:47.325Z,100146.66
2023-06-20T19:31:50.666Z,100150.91
2023-06-20T19:34:53.637Z,100152.00
2023-06-20T19:37:56.587Z,100157.31
2023-06-20T19:41:00.842Z,100148.25
2023-06-20T19:44:03.665Z,100153.09
2023-06-20T19:47:06.814Z,100155.44
2023-06-20T19:50:10.169Z,100158.63
2023-06-20T19:53:13.004Z,100154.38
2023-06-20T19:56:15.832Z,100158.63
2023-06-20T19:59:19.204Z,100163.41
2023-06-20T20:02:25.309Z,100166.59
2023-06-20T20:05:28.347Z,100166.25
2023-06-20T20:08:31.264Z,100162.31
2023-06-20T20:11:34.104Z,100160.69
2023-06-20T20:14:36.838Z,100166.72
2023-06-20T20:17:40.016Z,100165.09
2023-06-20T20:20:42.726Z,100163.22
2023-06-20T20:23:45.658Z,100169.84
2023-06-20T20:26:53.909Z,100157.63
2023-06-20T20:29:57.041Z,100160.28
2023-06-20T20:32:59.982Z,100161.63
2023-06-20T20:36:02.776Z,100170.59
2023-06-20T20:39:05.797Z,100160.75
2023-06-20T20:42:08.641Z,100166.88
2023-06-20T20:45:11.939Z,100169.47
2023-06-20T20:48:14.680Z,100170.69
2023-06-20T20:51:17.456Z,100169.66
2023-06-20T20:54:20.221Z,100168.47
2023-06-20T20:57:23.300Z,100171.81
2023-06-20T21:00:26.077Z,100172.88
2023-06-20T21:03:29.692Z,100172.44
2023-06-20T21:06:32.705Z,100177.69
2023-06-20T21:09:35.551Z,100178.16
2023-06-20T21:12:38.357Z,100180.31
2023-06-20T21:15:41.092Z,100189.63
2023-06-20T21:18:43.852Z,100190.44
2023-06-20T21:21:46.622Z,100192.50
2023-06-20T21:24:49.407Z,100199.06
2023-06-20T21:27:52.172Z,100195.94
2023-06-20T21:30:54.918Z,100201.22
2023-06-20T21:34:01.448Z,100199.72
2023-06-20T21:37:05.501Z,100187.03
2023-06-20T21:40:10.668Z,100190.19
2023-06-20T21:43:13.858Z,100186.69
2023-06-20T21:46:16.670Z,100182.06
2023-06-20T21:49:21.634Z,100184.13
2023-06-20T21:52:24.385Z,100180.94
2023-06-20T21:55:27.087Z,100175.34
2023-06-20T21:58:30.110Z,100180.63
2023-06-20T22:01:32.847Z,100189.69
2023-06-20T22:04:35.927Z,100176.69
2023-06-20T22:07:38.799Z,100185.53
2023-06-20T22:10:55.364Z,100182.53
2023-06-20T22:14:01.430Z,100193.66
2023-06-20T22:17:04.729Z,100192.84
2023-06-20T22:20:11.277Z,100191.41
2023-06-20T22:23:14.063Z,100187.31
2023-06-20T22:26:16.847Z,100187.66
2023-06-20T22:29:20.411Z,100176.88
2023-06-20T22:32:23.855Z,100189.03
2023-06-20T22:35:26.748Z,100184.28
2023-06-20T22:38:31.844Z,100183.19
2023-06-20T22:41:34.829Z,100190.56
2023-06-20T22:44:37.632Z,100185.75
2023-06-20T22:47:40.443Z,100190.75
2023-06-20T22:50:45.704Z,100193.41
2023-06-20T22:53:49.007Z,100193.66
2023-06-20T22:56:52.927Z,100186.06
2023-06-20T22:59:55.730Z,100187.78
2023-06-20T23:02:58.551Z,100189.19
2023-06-20T23:06:01.332Z,100179.03
2023-06-20T23:09:05.841Z,100181.22
2023-06-20T23:12:10.607Z,100188.34
2023-06-20T23:15:13.671Z,100185.09
2023-06-20T23:18:22.975Z,100185.81
2023-06-20T23:21:26.174Z,100182.47
2023-06-20T23:24:28.953Z,100174.34
2023-06-20T23:27:36.053Z,100176.38
2023-06-20T23:30:38.976Z,100169.91
2023-06-20T23:33:41.896Z,100164.94
2023-06-20T23:36:44.623Z,100170.38
2023-06-20T23:39:48.676Z,100164.88
2023-06-20T23:42:51.416Z,100174.78
2023-06-20T23:45:54.417Z,100170.00
2023-06-20T23:48:57.162Z,100172.41
2023-06-20T23:51:59.925Z,100173.50
2023-06-20T23:55:03.136Z,100175.22
2023-06-20T23:58:06.577Z,100179.28
